FLE weather

CLOSED Fort Lee Army Airfield
Fort Lee, Virginia, United States

Public forecast

Using degrees Fahrenheit for public forecast. Weather courtesy of forecast.io.

METAR (pilot weather report)

Closest report is Dinwiddie County Airport, 9.8 nm (18.2 km) SW. Retrieved 2019/05/19 21:35 UTC (17 minutes ago):

KPTB 192135Z AUTO 22009G14KT 10SM CLR 32/16 A2995 RMK AO2 T03220158

TAF (pilot weather forecast)

Closest forecast is Richmond International Airport, 13.3 nm (24.7 km) N. Retrieved 2019/05/19 18:42 UTC (3 hours ago):

TAF KRIC 191740Z 1918/2018 20012G18KT P6SM SCT050 FM200000 20008KT P6SM SKC FM201300 23012G19KT P6SM SCT060